This is the latest recevied weather packets stored in our database for station/object WX6HNX-4. If no packets are shown the sender has not sent any weather packets the latest 10 day(s).
| Time | Temp. | Humidity | Pressure | Rain* | Wind** | Luminosity | Snow |
|---|---|---|---|---|---|---|---|
| 1778037556 | 15° C | 70% | 1006.9 hPa | 0 mm | - | - | - |
| 1778035754 | 15° C | 69% | 1006.6 hPa | 0 mm | - | - | - |
| 1778035154 | 15° C | 69% | 1006.4 hPa | 0 mm | - | - | - |
| 1778032874 | 15° C | 69% | 1006.3 hPa | 0 mm | - | - | - |
| 1778031974 | 15° C | 70% | 1006.2 hPa | 0 mm | - | - | - |
| 1778030010 | 15° C | 68% | 1006.1 hPa | 0 mm | - | - | - |
| 1778028810 | 15° C | 69% | 1006.1 hPa | 0 mm | - | - | - |
| 1778028039 | 15° C | 71% | 1006.1 hPa | 0 mm | - | - | - |
| 1778021997 | 15.56° C | 74% | 1005.9 hPa | 0 mm | - | - | - |
| 1778020500 | 16.11° C | 72% | 1006.2 hPa | 0 mm | - | - | - |
| 1778019600 | 15° C | 75% | 1006.5 hPa | 0 mm | - | - | - |
| 1778019300 | 15° C | 76% | 1006.5 hPa | 0 mm | - | - | - |
| 1778017156 | 13.33° C | 86% | 1006.9 hPa | 0 mm | - | - | - |
| 1778016857 | 12.78° C | 86% | 1007.1 hPa | 0 mm | - | - | - |
| 1778015714 | 12.78° C | 87% | 1007.3 hPa | 0 mm | - | - | - |
| 1778015414 | 12.78° C | 87% | 1007.3 hPa | 0 mm | - | - | - |
| 1778015114 | 13.33° C | 87% | 1007.3 hPa | 0 mm | - | - | - |
| 1778014214 | 12.78° C | 86% | 1007.3 hPa | 0 mm | - | - | - |
| 1778013914 | 12.78° C | 85% | 1007.3 hPa | 0 mm | - | - | - |
| 1778013614 | 13.33° C | 83% | 1007.3 hPa | 0 mm | - | - | - |
| 1778012115 | 12.78° C | 83% | 1007.2 hPa | 0 mm | - | - | - |
| 1778011214 | 12.78° C | 85% | 1007.3 hPa | 0 mm | - | - | - |
| 1778009834 | 12.22° C | 88% | 1007.5 hPa | 0 mm | - | - | - |
| 1778009534 | 12.22° C | 88% | 1007.5 hPa | 0 mm | - | - | - |
| 1778009234 | 12.22° C | 88% | 1007.4 hPa | 0 mm | - | - | - |
* Rain latest hour (hover to see other rain measurements)
** Current wind speed in m/s (hover to see current wind gust speed)